sensor_id;sensor_type;location;lat;lon;timestamp;temperature;humidity
11136;DHT22;5622;50.840;4.948;2023-03-01T00:00:20;1.20;99.90
11136;DHT22;5622;50.840;4.948;2023-03-01T00:02:47;1.20;99.90
11136;DHT22;5622;50.840;4.948;2023-03-01T00:05:14;1.20;99.90
11136;DHT22;5622;50.840;4.948;2023-03-01T00:07:41;1.20;99.90
11136;DHT22;5622;50.840;4.948;2023-03-01T00:10:10;1.30;99.90
11136;DHT22;5622;50.840;4.948;2023-03-01T00:12:38;1.20;99.90
11136;DHT22;5622;50.840;4.948;2023-03-01T00:15:06;1.50;99.90
11136;DHT22;5622;50.840;4.948;2023-03-01T00:17:34;1.10;99.90
11136;DHT22;5622;50.840;4.948;2023-03-01T00:20:01;1.00;99.90
11136;DHT22;5622;50.840;4.948;2023-03-01T00:22:28;1.10;99.90
11136;DHT22;5622;50.840;4.948;2023-03-01T00:24:55;1.00;99.90
11136;DHT22;5622;50.840;4.948;2023-03-01T00:27:22;1.40;99.90
11136;DHT22;5622;50.840;4.948;2023-03-01T00:29:51;1.00;99.90
11136;DHT22;5622;50.840;4.948;2023-03-01T00:32:18;0.90;99.90
11136;DHT22;5622;50.840;4.948;2023-03-01T00:34:46;0.90;99.90
11136;DHT22;5622;50.840;4.948;2023-03-01T00:37:19;1.20;99.90
11136;DHT22;5622;50.840;4.948;2023-03-01T00:39:47;0.90;99.90
11136;DHT22;5622;50.840;4.948;2023-03-01T00:42:14;1.40;99.90
11136;DHT22;5622;50.840;4.948;2023-03-01T00:44:41;0.90;99.90
11136;DHT22;5622;50.840;4.948;2023-03-01T00:47:10;1.70;99.90
11136;DHT22;5622;50.840;4.948;2023-03-01T00:49:37;0.80;99.90
11136;DHT22;5622;50.840;4.948;2023-03-01T00:52:04;1.30;99.90
11136;DHT22;5622;50.840;4.948;2023-03-01T00:54:31;0.80;99.90
11136;DHT22;5622;50.840;4.948;2023-03-01T00:56:58;0.80;99.90
11136;DHT22;5622;50.840;4.948;2023-03-01T00:59:26;0.60;99.90
11136;DHT22;5622;50.840;4.948;2023-03-01T01:01:53;0.60;99.90
11136;DHT22;5622;50.840;4.948;2023-03-01T01:04:21;0.60;99.90
11136;DHT22;5622;50.840;4.948;2023-03-01T01:06:48;0.60;99.90
11136;DHT22;5622;50.840;4.948;2023-03-01T01:09:17;0.90;99.90
11136;DHT22;5622;50.840;4.948;2023-03-01T01:11:48;0.60;99.90
11136;DHT22;5622;50.840;4.948;2023-03-01T01:14:17;0.70;99.90
11136;DHT22;5622;50.840;4.948;2023-03-01T01:16:44;0.90;99.90
11136;DHT22;5622;50.840;4.948;2023-03-01T01:19:12;0.90;99.90
11136;DHT22;5622;50.840;4.948;2023-03-01T01:21:40;1.10;99.90
11136;DHT22;5622;50.840;4.948;2023-03-01T01:24:08;0.60;99.90
11136;DHT22;5622;50.840;4.948;2023-03-01T01:26:35;0.70;99.90
11136;DHT22;5622;50.840;4.948;2023-03-01T01:29:04;1.00;99.90
11136;DHT22;5622;50.840;4.948;2023-03-01T01:31:33;0.60;99.90
11136;DHT22;5622;50.840;4.948;2023-03-01T01:34:02;0.60;99.90
11136;DHT22;5622;50.840;4.948;2023-03-01T01:36:29;1.70;99.90
11136;DHT22;5622;50.840;4.948;2023-03-01T01:38:58;1.90;99.90
11136;DHT22;5622;50.840;4.948;2023-03-01T01:41:27;0.60;99.90
11136;DHT22;5622;50.840;4.948;2023-03-01T01:44:19;0.90;99.90
11136;DHT22;5622;50.840;4.948;2023-03-01T01:46:50;0.70;99.90
11136;DHT22;5622;50.840;4.948;2023-03-01T01:49:23;0.70;99.90
11136;DHT22;5622;50.840;4.948;2023-03-01T01:51:55;0.80;99.90
11136;DHT22;5622;50.840;4.948;2023-03-01T01:54:29;0.60;99.90
11136;DHT22;5622;50.840;4.948;2023-03-01T01:57:00;1.30;99.90
11136;DHT22;5622;50.840;4.948;2023-03-01T01:59:30;1.50;99.90
11136;DHT22;5622;50.840;4.948;2023-03-01T02:01:59;0.80;99.90
11136;DHT22;5622;50.840;4.948;2023-03-01T02:04:28;0.50;99.90
11136;DHT22;5622;50.840;4.948;2023-03-01T02:06:59;0.60;99.90
11136;DHT22;5622;50.840;4.948;2023-03-01T02:09:30;0.50;99.90
11136;DHT22;5622;50.840;4.948;2023-03-01T02:11:59;0.50;99.90
11136;DHT22;5622;50.840;4.948;2023-03-01T02:14:26;1.00;99.90
11136;DHT22;5622;50.840;4.948;2023-03-01T02:16:54;1.00;99.90
11136;DHT22;5622;50.840;4.948;2023-03-01T02:19:35;0.40;99.90
11136;DHT22;5622;50.840;4.948;2023-03-01T02:22:13;1.20;99.90
11136;DHT22;5622;50.840;4.948;2023-03-01T02:24:53;0.50;99.90
11136;DHT22;5622;50.840;4.948;2023-03-01T02:27:31;0.40;99.90
11136;DHT22;5622;50.840;4.948;2023-03-01T02:30:01;0.40;99.90
11136;DHT22;5622;50.840;4.948;2023-03-01T02:32:29;0.30;99.90
11136;DHT22;5622;50.840;4.948;2023-03-01T02:34:55;1.10;99.90
11136;DHT22;5622;50.840;4.948;2023-03-01T02:37:24;0.20;99.90
11136;DHT22;5622;50.840;4.948;2023-03-01T02:39:56;0.80;99.90
11136;DHT22;5622;50.840;4.948;2023-03-01T02:42:28;0.30;99.90
11136;DHT22;5622;50.840;4.948;2023-03-01T02:44:57;0.30;99.90
11136;DHT22;5622;50.840;4.948;2023-03-01T02:47:26;0.50;99.90
11136;DHT22;5622;50.840;4.948;2023-03-01T02:49:53;0.70;99.90
11136;DHT22;5622;50.840;4.948;2023-03-01T02:52:41;0.40;99.90
11136;DHT22;5622;50.840;4.948;2023-03-01T02:55:11;0.30;99.90
11136;DHT22;5622;50.840;4.948;2023-03-01T02:57:41;0.30;99.90
11136;DHT22;5622;50.840;4.948;2023-03-01T03:00:11;0.20;99.90
11136;DHT22;5622;50.840;4.948;2023-03-01T03:02:47;0.30;99.90
11136;DHT22;5622;50.840;4.948;2023-03-01T03:05:16;0.20;99.90
11136;DHT22;5622;50.840;4.948;2023-03-01T03:07:45;0.30;99.90
11136;DHT22;5622;50.840;4.948;2023-03-01T03:10:15;0.90;99.90
11136;DHT22;5622;50.840;4.948;2023-03-01T03:12:44;0.40;99.90
11136;DHT22;5622;50.840;4.948;2023-03-01T03:15:15;0.70;99.90
11136;DHT22;5622;50.840;4.948;2023-03-01T03:17:43;0.20;99.90
11136;DHT22;5622;50.840;4.948;2023-03-01T03:20:14;0.20;99.90
11136;DHT22;5622;50.840;4.948;2023-03-01T03:22:45;0.10;99.90
11136;DHT22;5622;50.840;4.948;2023-03-01T03:25:12;0.10;99.90
11136;DHT22;5622;50.840;4.948;2023-03-01T03:27:40;0.40;99.90
11136;DHT22;5622;50.840;4.948;2023-03-01T03:30:10;0.30;99.90
11136;DHT22;5622;50.840;4.948;2023-03-01T03:32:38;0.10;99.90
11136;DHT22;5622;50.840;4.948;2023-03-01T03:35:07;0.70;99.90
11136;DHT22;5622;50.840;4.948;2023-03-01T03:37:38;0.10;99.90
11136;DHT22;5622;50.840;4.948;2023-03-01T03:40:23;0.10;99.90
11136;DHT22;5622;50.840;4.948;2023-03-01T03:42:50;1.20;99.90
11136;DHT22;5622;50.840;4.948;2023-03-01T03:45:18;0.10;99.90
11136;DHT22;5622;50.840;4.948;2023-03-01T03:47:45;0.50;99.90
11136;DHT22;5622;50.840;4.948;2023-03-01T03:50:14;1.10;99.90
11136;DHT22;5622;50.840;4.948;2023-03-01T03:52:43;0.00;99.90
11136;DHT22;5622;50.840;4.948;2023-03-01T03:55:11;0.60;99.90
11136;DHT22;5622;50.840;4.948;2023-03-01T03:57:40;0.50;99.90
11136;DHT22;5622;50.840;4.948;2023-03-01T04:00:10;0.50;99.90
11136;DHT22;5622;50.840;4.948;2023-03-01T04:02:39;0.10;99.90
11136;DHT22;5622;50.840;4.948;2023-03-01T04:05:07;0.40;99.90
11136;DHT22;5622;50.840;4.948;2023-03-01T04:07:35;0.00;99.90
11136;DHT22;5622;50.840;4.948;2023-03-01T04:10:07;0.50;99.90
11136;DHT22;5622;50.840;4.948;2023-03-01T04:12:35;0.00;99.90
11136;DHT22;5622;50.840;4.948;2023-03-01T04:15:03;0.50;99.90
11136;DHT22;5622;50.840;4.948;2023-03-01T04:17:38;-0.10;99.90
11136;DHT22;5622;50.840;4.948;2023-03-01T04:20:07;-0.10;99.90
11136;DHT22;5622;50.840;4.948;2023-03-01T04:22:37;-0.10;99.90
11136;DHT22;5622;50.840;4.948;2023-03-01T04:25:06;-0.10;99.90
11136;DHT22;5622;50.840;4.948;2023-03-01T04:27:33;-0.10;99.90
11136;DHT22;5622;50.840;4.948;2023-03-01T04:30:01;0.50;99.90
11136;DHT22;5622;50.840;4.948;2023-03-01T04:32:28;-0.10;99.90
11136;DHT22;5622;50.840;4.948;2023-03-01T04:34:55;1.20;99.90
11136;DHT22;5622;50.840;4.948;2023-03-01T04:37:23;0.80;99.90
11136;DHT22;5622;50.840;4.948;2023-03-01T04:39:50;0.50;99.90
11136;DHT22;5622;50.840;4.948;2023-03-01T04:42:19;0.90;99.90
11136;DHT22;5622;50.840;4.948;2023-03-01T04:44:46;1.00;99.90
11136;DHT22;5622;50.840;4.948;2023-03-01T04:47:16;0.30;99.90
11136;DHT22;5622;50.840;4.948;2023-03-01T04:49:44;-0.10;99.90
11136;DHT22;5622;50.840;4.948;2023-03-01T04:52:11;-0.10;99.90
11136;DHT22;5622;50.840;4.948;2023-03-01T04:54:38;1.10;99.90
11136;DHT22;5622;50.840;4.948;2023-03-01T04:57:05;-0.10;99.90
11136;DHT22;5622;50.840;4.948;2023-03-01T04:59:33;0.60;99.90
11136;DHT22;5622;50.840;4.948;2023-03-01T05:02:01;-0.10;99.90
11136;DHT22;5622;50.840;4.948;2023-03-01T05:04:28;0.90;99.90
11136;DHT22;5622;50.840;4.948;2023-03-01T05:06:57;0.00;99.90
11136;DHT22;5622;50.840;4.948;2023-03-01T05:09:24;0.00;99.90
11136;DHT22;5622;50.840;4.948;2023-03-01T05:11:51;0.80;99.90
11136;DHT22;5622;50.840;4.948;2023-03-01T05:14:18;0.00;99.90
11136;DHT22;5622;50.840;4.948;2023-03-01T05:16:47;0.90;99.90
11136;DHT22;5622;50.840;4.948;2023-03-01T05:19:14;0.30;99.90
11136;DHT22;5622;50.840;4.948;2023-03-01T05:21:42;0.20;99.90
11136;DHT22;5622;50.840;4.948;2023-03-01T05:24:23;0.80;99.90
11136;DHT22;5622;50.840;4.948;2023-03-01T05:26:51;0.00;99.90
11136;DHT22;5622;50.840;4.948;2023-03-01T05:29:19;0.00;99.90
11136;DHT22;5622;50.840;4.948;2023-03-01T05:31:52;0.00;99.90
11136;DHT22;5622;50.840;4.948;2023-03-01T05:34:23;0.60;99.90
11136;DHT22;5622;50.840;4.948;2023-03-01T05:36:51;0.10;99.90
11136;DHT22;5622;50.840;4.948;2023-03-01T05:39:19;0.20;99.90
11136;DHT22;5622;50.840;4.948;2023-03-01T05:41:48;0.40;99.90
11136;DHT22;5622;50.840;4.948;2023-03-01T05:44:15;0.70;99.90
11136;DHT22;5622;50.840;4.948;2023-03-01T05:46:42;0.50;99.90
11136;DHT22;5622;50.840;4.948;2023-03-01T05:49:12;0.20;99.90
11136;DHT22;5622;50.840;4.948;2023-03-01T05:51:40;0.00;99.90
11136;DHT22;5622;50.840;4.948;2023-03-01T05:54:08;0.20;99.90
11136;DHT22;5622;50.840;4.948;2023-03-01T05:56:36;0.00;99.90
11136;DHT22;5622;50.840;4.948;2023-03-01T05:59:04;0.30;99.90
11136;DHT22;5622;50.840;4.948;2023-03-01T06:01:32;-0.10;99.90
11136;DHT22;5622;50.840;4.948;2023-03-01T06:03:59;0.00;99.90
11136;DHT22;5622;50.840;4.948;2023-03-01T06:06:27;0.00;99.90
11136;DHT22;5622;50.840;4.948;2023-03-01T06:08:55;0.50;99.90
11136;DHT22;5622;50.840;4.948;2023-03-01T06:11:22;-0.20;99.90
11136;DHT22;5622;50.840;4.948;2023-03-01T06:13:49;0.70;99.90
11136;DHT22;5622;50.840;4.948;2023-03-01T06:16:16;1.30;99.90
11136;DHT22;5622;50.840;4.948;2023-03-01T06:18:43;0.50;99.90
11136;DHT22;5622;50.840;4.948;2023-03-01T06:21:10;1.00;99.90
11136;DHT22;5622;50.840;4.948;2023-03-01T06:23:39;-0.20;99.90
11136;DHT22;5622;50.840;4.948;2023-03-01T06:26:08;0.50;99.90
11136;DHT22;5622;50.840;4.948;2023-03-01T06:28:35;-0.30;99.90
11136;DHT22;5622;50.840;4.948;2023-03-01T06:31:03;1.00;99.90
11136;DHT22;5622;50.840;4.948;2023-03-01T06:33:30;-0.30;99.90
11136;DHT22;5622;50.840;4.948;2023-03-01T06:35:57;-0.10;99.90
11136;DHT22;5622;50.840;4.948;2023-03-01T06:38:24;-0.10;99.90
11136;DHT22;5622;50.840;4.948;2023-03-01T06:40:54;-0.10;99.90
11136;DHT22;5622;50.840;4.948;2023-03-01T06:43:22;-0.30;99.90
11136;DHT22;5622;50.840;4.948;2023-03-01T06:45:49;-0.10;99.90
11136;DHT22;5622;50.840;4.948;2023-03-01T06:48:16;-0.20;99.90
11136;DHT22;5622;50.840;4.948;2023-03-01T06:50:43;-0.30;99.90
11136;DHT22;5622;50.840;4.948;2023-03-01T06:53:10;0.40;99.90
11136;DHT22;5622;50.840;4.948;2023-03-01T06:55:37;-0.40;99.90
11136;DHT22;5622;50.840;4.948;2023-03-01T06:58:06;-0.40;99.90
11136;DHT22;5622;50.840;4.948;2023-03-01T07:00:33;-0.40;99.90
11136;DHT22;5622;50.840;4.948;2023-03-01T07:03:01;-0.40;99.90
11136;DHT22;5622;50.840;4.948;2023-03-01T07:05:29;0.70;99.90
11136;DHT22;5622;50.840;4.948;2023-03-01T07:07:56;-0.50;99.90
11136;DHT22;5622;50.840;4.948;2023-03-01T07:10:24;0.00;99.90
11136;DHT22;5622;50.840;4.948;2023-03-01T07:12:54;-0.40;99.90
11136;DHT22;5622;50.840;4.948;2023-03-01T07:15:25;-0.40;99.90
11136;DHT22;5622;50.840;4.948;2023-03-01T07:17:53;-0.40;99.90
11136;DHT22;5622;50.840;4.948;2023-03-01T07:20:21;0.00;99.90
11136;DHT22;5622;50.840;4.948;2023-03-01T07:22:50;0.60;99.90
11136;DHT22;5622;50.840;4.948;2023-03-01T07:25:18;-0.20;99.90
11136;DHT22;5622;50.840;4.948;2023-03-01T07:27:49;0.90;99.90
11136;DHT22;5622;50.840;4.948;2023-03-01T07:30:17;-0.10;99.90
11136;DHT22;5622;50.840;4.948;2023-03-01T07:32:46;1.00;99.90
11136;DHT22;5622;50.840;4.948;2023-03-01T07:35:13;-0.10;99.90
11136;DHT22;5622;50.840;4.948;2023-03-01T07:37:41;0.00;99.90
11136;DHT22;5622;50.840;4.948;2023-03-01T07:40:09;0.00;99.90
11136;DHT22;5622;50.840;4.948;2023-03-01T07:42:37;0.10;99.90
11136;DHT22;5622;50.840;4.948;2023-03-01T07:45:05;0.20;99.90
11136;DHT22;5622;50.840;4.948;2023-03-01T07:47:32;0.20;99.90
11136;DHT22;5622;50.840;4.948;2023-03-01T07:50:01;0.40;99.90
11136;DHT22;5622;50.840;4.948;2023-03-01T07:52:29;1.10;99.90
11136;DHT22;5622;50.840;4.948;2023-03-01T07:54:56;0.70;99.90
11136;DHT22;5622;50.840;4.948;2023-03-01T07:57:23;0.30;99.90
11136;DHT22;5622;50.840;4.948;2023-03-01T07:59:50;0.40;99.90
11136;DHT22;5622;50.840;4.948;2023-03-01T08:02:18;0.50;99.90
11136;DHT22;5622;50.840;4.948;2023-03-01T08:04:45;1.70;99.90
11136;DHT22;5622;50.840;4.948;2023-03-01T08:07:13;0.70;99.90
11136;DHT22;5622;50.840;4.948;2023-03-01T08:09:40;0.90;99.90
11136;DHT22;5622;50.840;4.948;2023-03-01T08:12:08;2.00;99.90
11136;DHT22;5622;50.840;4.948;2023-03-01T08:14:35;1.30;99.90
11136;DHT22;5622;50.840;4.948;2023-03-01T08:17:02;1.60;99.90
11136;DHT22;5622;50.840;4.948;2023-03-01T08:19:29;1.90;99.90
11136;DHT22;5622;50.840;4.948;2023-03-01T08:21:58;2.30;99.90
11136;DHT22;5622;50.840;4.948;2023-03-01T08:24:27;2.70;99.90
11136;DHT22;5622;50.840;4.948;2023-03-01T08:26:55;3.00;99.90
11136;DHT22;5622;50.840;4.948;2023-03-01T08:29:22;3.40;99.90
11136;DHT22;5622;50.840;4.948;2023-03-01T08:31:50;3.70;99.90
11136;DHT22;5622;50.840;4.948;2023-03-01T08:34:18;3.90;99.90
11136;DHT22;5622;50.840;4.948;2023-03-01T08:36:46;4.30;99.90
11136;DHT22;5622;50.840;4.948;2023-03-01T08:39:15;4.30;99.90
11136;DHT22;5622;50.840;4.948;2023-03-01T08:41:45;4.60;99.90
11136;DHT22;5622;50.840;4.948;2023-03-01T08:44:13;4.60;99.90
11136;DHT22;5622;50.840;4.948;2023-03-01T08:46:42;4.70;99.90
11136;DHT22;5622;50.840;4.948;2023-03-01T08:49:13;4.80;99.90
11136;DHT22;5622;50.840;4.948;2023-03-01T08:51:41;4.80;99.90
11136;DHT22;5622;50.840;4.948;2023-03-01T08:54:13;4.80;99.90
11136;DHT22;5622;50.840;4.948;2023-03-01T08:56:41;4.90;99.90
11136;DHT22;5622;50.840;4.948;2023-03-01T08:59:11;4.90;99.90
11136;DHT22;5622;50.840;4.948;2023-03-01T09:01:38;5.00;99.90
11136;DHT22;5622;50.840;4.948;2023-03-01T09:04:09;5.20;99.90
11136;DHT22;5622;50.840;4.948;2023-03-01T09:06:36;5.40;99.90
11136;DHT22;5622;50.840;4.948;2023-03-01T09:09:04;5.40;99.90
11136;DHT22;5622;50.840;4.948;2023-03-01T09:11:33;5.60;99.90
11136;DHT22;5622;50.840;4.948;2023-03-01T09:14:00;5.90;99.90
11136;DHT22;5622;50.840;4.948;2023-03-01T09:16:29;5.80;99.90
11136;DHT22;5622;50.840;4.948;2023-03-01T09:19:02;5.90;98.90
11136;DHT22;5622;50.840;4.948;2023-03-01T09:21:29;5.70;98.20
11136;DHT22;5622;50.840;4.948;2023-03-01T09:23:57;5.70;98.50
11136;DHT22;5622;50.840;4.948;2023-03-01T09:26:24;5.60;98.80
11136;DHT22;5622;50.840;4.948;2023-03-01T09:28:53;5.60;98.60
11136;DHT22;5622;50.840;4.948;2023-03-01T09:31:22;5.40;98.00
11136;DHT22;5622;50.840;4.948;2023-03-01T09:33:52;5.30;98.20
11136;DHT22;5622;50.840;4.948;2023-03-01T09:36:21;5.10;97.90
11136;DHT22;5622;50.840;4.948;2023-03-01T09:38:49;4.90;98.10
11136;DHT22;5622;50.840;4.948;2023-03-01T09:41:31;4.80;98.80
11136;DHT22;5622;50.840;4.948;2023-03-01T09:44:10;4.70;98.70
11136;DHT22;5622;50.840;4.948;2023-03-01T09:46:43;4.60;98.40
11136;DHT22;5622;50.840;4.948;2023-03-01T09:49:15;4.50;98.70
11136;DHT22;5622;50.840;4.948;2023-03-01T09:51:53;4.50;99.30
11136;DHT22;5622;50.840;4.948;2023-03-01T09:54:21;4.50;99.70
11136;DHT22;5622;50.840;4.948;2023-03-01T09:56:58;4.50;99.60
11136;DHT22;5622;50.840;4.948;2023-03-01T09:59:32;4.40;99.60
11136;DHT22;5622;50.840;4.948;2023-03-01T10:02:16;4.40;99.60
11136;DHT22;5622;50.840;4.948;2023-03-01T10:04:48;4.40;99.30
11136;DHT22;5622;50.840;4.948;2023-03-01T10:07:25;4.30;99.00
11136;DHT22;5622;50.840;4.948;2023-03-01T10:09:54;4.40;99.10
11136;DHT22;5622;50.840;4.948;2023-03-01T10:12:27;4.30;99.20
11136;DHT22;5622;50.840;4.948;2023-03-01T10:15:02;4.30;99.50
11136;DHT22;5622;50.840;4.948;2023-03-01T10:17:34;4.30;99.80
11136;DHT22;5622;50.840;4.948;2023-03-01T10:20:20;4.40;99.90
11136;DHT22;5622;50.840;4.948;2023-03-01T10:22:48;4.40;99.70
11136;DHT22;5622;50.840;4.948;2023-03-01T10:25:34;4.40;99.60
11136;DHT22;5622;50.840;4.948;2023-03-01T10:28:12;4.40;99.30
11136;DHT22;5622;50.840;4.948;2023-03-01T10:30:42;4.50;99.90
11136;DHT22;5622;50.840;4.948;2023-03-01T10:33:19;4.60;99.90
11136;DHT22;5622;50.840;4.948;2023-03-01T10:35:49;5.00;99.90
11136;DHT22;5622;50.840;4.948;2023-03-01T10:38:17;5.40;99.60
11136;DHT22;5622;50.840;4.948;2023-03-01T10:40:54;5.80;99.60
11136;DHT22;5622;50.840;4.948;2023-03-01T10:43:23;6.20;99.30
11136;DHT22;5622;50.840;4.948;2023-03-01T10:45:51;6.60;97.00
11136;DHT22;5622;50.840;4.948;2023-03-01T10:48:19;7.10;97.50
11136;DHT22;5622;50.840;4.948;2023-03-01T10:51:04;7.50;96.00
11136;DHT22;5622;50.840;4.948;2023-03-01T10:53:33;7.80;95.80
11136;DHT22;5622;50.840;4.948;2023-03-01T10:56:03;8.10;93.70
11136;DHT22;5622;50.840;4.948;2023-03-01T10:58:31;8.30;93.40
11136;DHT22;5622;50.840;4.948;2023-03-01T11:01:00;8.60;93.40
11136;DHT22;5622;50.840;4.948;2023-03-01T11:03:29;8.80;93.50
11136;DHT22;5622;50.840;4.948;2023-03-01T11:06:04;9.00;92.80
11136;DHT22;5622;50.840;4.948;2023-03-01T11:08:37;9.10;91.50
11136;DHT22;5622;50.840;4.948;2023-03-01T11:11:20;9.00;91.40
11136;DHT22;5622;50.840;4.948;2023-03-01T11:13:52;8.70;90.30
11136;DHT22;5622;50.840;4.948;2023-03-01T11:16:25;8.40;90.50
11136;DHT22;5622;50.840;4.948;2023-03-01T11:18:57;8.10;91.00
11136;DHT22;5622;50.840;4.948;2023-03-01T11:21:28;7.70;91.00
11136;DHT22;5622;50.840;4.948;2023-03-01T11:23:58;7.40;91.40
11136;DHT22;5622;50.840;4.948;2023-03-01T11:26:28;7.10;91.60
11136;DHT22;5622;50.840;4.948;2023-03-01T11:28:58;6.90;92.00
11136;DHT22;5622;50.840;4.948;2023-03-01T11:31:28;6.60;92.00
11136;DHT22;5622;50.840;4.948;2023-03-01T11:34:01;6.50;92.70
11136;DHT22;5622;50.840;4.948;2023-03-01T11:36:38;6.30;92.90
11136;DHT22;5622;50.840;4.948;2023-03-01T11:39:18;6.10;92.50
11136;DHT22;5622;50.840;4.948;2023-03-01T11:41:52;6.00;92.80
11136;DHT22;5622;50.840;4.948;2023-03-01T11:44:24;5.90;93.10
11136;DHT22;5622;50.840;4.948;2023-03-01T11:47:20;5.80;93.20
11136;DHT22;5622;50.840;4.948;2023-03-01T11:50:16;5.70;93.50
11136;DHT22;5622;50.840;4.948;2023-03-01T11:52:56;5.70;93.90
11136;DHT22;5622;50.840;4.948;2023-03-01T11:55:47;5.70;93.90
11136;DHT22;5622;50.840;4.948;2023-03-01T11:58:41;5.70;94.20
11136;DHT22;5622;50.840;4.948;2023-03-01T12:01:19;5.60;94.60
11136;DHT22;5622;50.840;4.948;2023-03-01T12:04:06;5.60;94.50
11136;DHT22;5622;50.840;4.948;2023-03-01T12:06:47;5.60;93.60
11136;DHT22;5622;50.840;4.948;2023-03-01T12:09:31;5.60;93.90
11136;DHT22;5622;50.840;4.948;2023-03-01T12:12:17;5.60;94.00
11136;DHT22;5622;50.840;4.948;2023-03-01T12:15:02;5.50;93.30
11136;DHT22;5622;50.840;4.948;2023-03-01T12:20:28;5.60;93.70
11136;DHT22;5622;50.840;4.948;2023-03-01T12:26:10;5.60;93.90
11136;DHT22;5622;50.840;4.948;2023-03-01T12:28:54;5.70;93.90
11136;DHT22;5622;50.840;4.948;2023-03-01T12:31:44;5.70;93.80
11136;DHT22;5622;50.840;4.948;2023-03-01T12:34:33;5.70;93.30
11136;DHT22;5622;50.840;4.948;2023-03-01T12:37:22;5.70;93.80
11136;DHT22;5622;50.840;4.948;2023-03-01T12:40:09;5.80;93.50
11136;DHT22;5622;50.840;4.948;2023-03-01T12:42:48;5.80;93.80
11136;DHT22;5622;50.840;4.948;2023-03-01T12:45:48;5.80;93.70
11136;DHT22;5622;50.840;4.948;2023-03-01T12:48:31;5.80;93.70
11136;DHT22;5622;50.840;4.948;2023-03-01T12:51:05;5.90;93.60
11136;DHT22;5622;50.840;4.948;2023-03-01T12:53:36;5.80;93.80
11136;DHT22;5622;50.840;4.948;2023-03-01T12:56:07;5.90;94.10
11136;DHT22;5622;50.840;4.948;2023-03-01T12:58:42;5.90;94.30
11136;DHT22;5622;50.840;4.948;2023-03-01T13:01:19;5.90;94.20
11136;DHT22;5622;50.840;4.948;2023-03-01T13:04:28;5.90;93.00
11136;DHT22;5622;50.840;4.948;2023-03-01T13:07:04;5.90;92.80
11136;DHT22;5622;50.840;4.948;2023-03-01T13:09:43;6.00;92.80
11136;DHT22;5622;50.840;4.948;2023-03-01T13:15:32;5.90;93.00
11136;DHT22;5622;50.840;4.948;2023-03-01T13:18:00;6.00;92.60
11136;DHT22;5622;50.840;4.948;2023-03-01T13:20:31;6.00;92.50
11136;DHT22;5622;50.840;4.948;2023-03-01T13:23:06;6.00;91.10
11136;DHT22;5622;50.840;4.948;2023-03-01T13:25:34;6.00;91.20
11136;DHT22;5622;50.840;4.948;2023-03-01T13:28:36;6.00;91.80
11136;DHT22;5622;50.840;4.948;2023-03-01T13:31:08;6.10;92.40
11136;DHT22;5622;50.840;4.948;2023-03-01T13:33:45;6.10;92.40
11136;DHT22;5622;50.840;4.948;2023-03-01T13:36:46;6.10;92.40
11136;DHT22;5622;50.840;4.948;2023-03-01T13:39:31;6.20;91.80
11136;DHT22;5622;50.840;4.948;2023-03-01T13:41:59;6.20;91.70
11136;DHT22;5622;50.840;4.948;2023-03-01T13:44:33;6.20;91.40
11136;DHT22;5622;50.840;4.948;2023-03-01T13:47:16;6.30;91.20
11136;DHT22;5622;50.840;4.948;2023-03-01T13:49:46;6.30;91.50
11136;DHT22;5622;50.840;4.948;2023-03-01T13:52:36;6.30;91.20
11136;DHT22;5622;50.840;4.948;2023-03-01T13:55:14;6.30;91.20
11136;DHT22;5622;50.840;4.948;2023-03-01T13:57:46;6.30;91.20
11136;DHT22;5622;50.840;4.948;2023-03-01T14:00:31;6.30;90.80
11136;DHT22;5622;50.840;4.948;2023-03-01T14:03:21;6.40;90.50
11136;DHT22;5622;50.840;4.948;2023-03-01T14:06:03;6.40;90.10
11136;DHT22;5622;50.840;4.948;2023-03-01T14:08:34;6.40;90.40
11136;DHT22;5622;50.840;4.948;2023-03-01T14:11:43;6.40;90.70
11136;DHT22;5622;50.840;4.948;2023-03-01T14:14:48;6.40;90.90
11136;DHT22;5622;50.840;4.948;2023-03-01T14:20:23;6.40;91.30
11136;DHT22;5622;50.840;4.948;2023-03-01T14:22:53;6.40;91.00
11136;DHT22;5622;50.840;4.948;2023-03-01T14:25:24;6.40;91.30
11136;DHT22;5622;50.840;4.948;2023-03-01T14:27:55;6.50;91.40
11136;DHT22;5622;50.840;4.948;2023-03-01T14:30:25;6.50;91.30
11136;DHT22;5622;50.840;4.948;2023-03-01T14:32:54;6.50;91.30
11136;DHT22;5622;50.840;4.948;2023-03-01T14:35:25;6.60;91.00
11136;DHT22;5622;50.840;4.948;2023-03-01T14:37:52;6.60;91.20
11136;DHT22;5622;50.840;4.948;2023-03-01T14:40:22;6.60;91.40
11136;DHT22;5622;50.840;4.948;2023-03-01T14:42:50;6.70;90.90
11136;DHT22;5622;50.840;4.948;2023-03-01T14:45:18;6.70;90.70
11136;DHT22;5622;50.840;4.948;2023-03-01T14:47:46;6.70;90.90
11136;DHT22;5622;50.840;4.948;2023-03-01T14:50:23;6.60;90.90
11136;DHT22;5622;50.840;4.948;2023-03-01T14:52:53;6.70;91.10
11136;DHT22;5622;50.840;4.948;2023-03-01T14:55:24;6.70;91.40
11136;DHT22;5622;50.840;4.948;2023-03-01T14:57:53;6.70;91.80
11136;DHT22;5622;50.840;4.948;2023-03-01T15:00:23;6.70;91.90
11136;DHT22;5622;50.840;4.948;2023-03-01T15:02:51;6.70;91.80
11136;DHT22;5622;50.840;4.948;2023-03-01T15:05:28;6.70;91.40
11136;DHT22;5622;50.840;4.948;2023-03-01T15:07:57;6.80;90.40
11136;DHT22;5622;50.840;4.948;2023-03-01T15:10:27;6.80;89.90
11136;DHT22;5622;50.840;4.948;2023-03-01T15:12:54;6.80;88.20
11136;DHT22;5622;50.840;4.948;2023-03-01T15:15:39;6.80;88.50
11136;DHT22;5622;50.840;4.948;2023-03-01T15:18:15;6.80;89.00
11136;DHT22;5622;50.840;4.948;2023-03-01T15:20:45;6.80;90.00
11136;DHT22;5622;50.840;4.948;2023-03-01T15:23:21;6.80;90.00
11136;DHT22;5622;50.840;4.948;2023-03-01T15:25:50;6.80;90.00
11136;DHT22;5622;50.840;4.948;2023-03-01T15:28:24;6.70;88.40
11136;DHT22;5622;50.840;4.948;2023-03-01T15:30:57;6.70;88.10
11136;DHT22;5622;50.840;4.948;2023-03-01T15:33:31;6.70;89.20
11136;DHT22;5622;50.840;4.948;2023-03-01T15:36:02;6.70;89.00
11136;DHT22;5622;50.840;4.948;2023-03-01T15:38:35;6.70;88.50
11136;DHT22;5622;50.840;4.948;2023-03-01T15:41:22;6.70;88.40
11136;DHT22;5622;50.840;4.948;2023-03-01T15:43:51;6.70;88.10
11136;DHT22;5622;50.840;4.948;2023-03-01T15:46:27;6.70;89.00
11136;DHT22;5622;50.840;4.948;2023-03-01T15:48:56;6.70;88.50
11136;DHT22;5622;50.840;4.948;2023-03-01T15:51:31;6.60;89.60
11136;DHT22;5622;50.840;4.948;2023-03-01T15:54:01;6.70;90.00
11136;DHT22;5622;50.840;4.948;2023-03-01T15:56:29;6.60;89.40
11136;DHT22;5622;50.840;4.948;2023-03-01T15:59:01;6.80;88.90
11136;DHT22;5622;50.840;4.948;2023-03-01T16:01:28;6.70;89.40
11136;DHT22;5622;50.840;4.948;2023-03-01T16:03:56;6.60;88.30
11136;DHT22;5622;50.840;4.948;2023-03-01T16:06:24;6.60;88.40
11136;DHT22;5622;50.840;4.948;2023-03-01T16:08:54;6.60;88.70
11136;DHT22;5622;50.840;4.948;2023-03-01T16:11:21;6.60;89.40
11136;DHT22;5622;50.840;4.948;2023-03-01T16:13:48;6.60;90.00
11136;DHT22;5622;50.840;4.948;2023-03-01T16:16:16;6.60;90.20
11136;DHT22;5622;50.840;4.948;2023-03-01T16:18:45;6.50;90.40
11136;DHT22;5622;50.840;4.948;2023-03-01T16:21:21;6.60;90.50
11136;DHT22;5622;50.840;4.948;2023-03-01T16:23:49;6.50;90.50
11136;DHT22;5622;50.840;4.948;2023-03-01T16:26:18;6.50;90.50
11136;DHT22;5622;50.840;4.948;2023-03-01T16:28:45;6.50;90.10
11136;DHT22;5622;50.840;4.948;2023-03-01T16:31:17;6.50;90.20
11136;DHT22;5622;50.840;4.948;2023-03-01T16:33:44;6.50;90.30
11136;DHT22;5622;50.840;4.948;2023-03-01T16:36:17;6.40;90.70
11136;DHT22;5622;50.840;4.948;2023-03-01T16:38:44;6.40;90.90